Lanzarote

Airport
ICAO code: 
GCRR
Summary
ICAO Region: 
EUR
Territory: 
Location: 
Arrecife,
Coordinates: 
Aerial View: 
28° 56' 43.796" N, 13° 36' 18.72" W
Metar
Observation
GCRR 262330Z 35006KT CAVOK 15/11 Q1019
Station
Lanzarote / Aeropuerto
Date/Time
2022-01-26 23:30:00
Wind direction
350°
Wind speed
06 kts
Lowest cloud amount
clouds and visibility OK
Temperature
15°C
Dew point
11°C
Humidity
77%
QNH
1019 hPa
Weather condition
n/a

Description

Airport serving the island of Lanzarote.

Climatology

Dry-summer subtropical ”Mediterranean" climate (Köppen climate classification Csa) - characterized by hot, dry summers and mild winters. During the summer, subtropical high pressure cells dominate, making rainfall unlikely except for the occasional thunderstorm. In the winter, periodic storms bring rain (snow at higher elevations).

Runways

Designator Length Width Surface Rops
3/21 2400 45 ASP Yes/Yes
Airport map: 
Aerial View: 

Accidents and Serious Incidents at or in the vicinity of GCRR

SKYbrary Partners:

Safety knowledge contributed by: